Time;durP1;ratioP1;P1;durP2;ratioP2;P2;SDS_P1;SDS_P2;PMS_P1;PMS_P2;Temp;Humidity;BMP_temperature;BMP_pressure;BME280_temperature;BME280_humidity;BME280_pressure;Samples;Min_cycle;Max_cycle;Signal;HPM_P1;HPM_P2
2023/07/21 00:00:34;;;;;;;12.40;8.20;;;20.90;99.90;;;;;;6192562;23;20040;-83
2023/07/21 00:03:02;;;;;;;13.55;8.68;;;21.10;99.90;;;;;;6180970;23;20469;-84
2023/07/21 00:05:29;;;;;;;14.88;8.18;;;20.90;99.90;;;;;;6182506;23;20029;-84
2023/07/21 00:07:57;;;;;;;11.70;8.07;;;20.90;99.90;;;;;;6156397;23;20052;-83
2023/07/21 00:10:24;;;;;;;13.18;7.85;;;20.90;99.90;;;;;;6187613;23;20039;-82
2023/07/21 00:12:52;;;;;;;13.52;8.07;;;20.90;99.90;;;;;;6190278;23;20013;-82
2023/07/21 00:15:21;;;;;;;12.73;7.72;;;20.80;99.90;;;;;;6193442;23;20464;-83
2023/07/21 00:17:50;;;;;;;12.25;8.15;;;20.90;99.90;;;;;;6167451;23;20048;-84
2023/07/21 00:20:21;;;;;;;12.27;8.55;;;20.80;99.90;;;;;;6187283;23;20385;-83
2023/07/21 00:22:49;;;;;;;11.40;7.55;;;20.70;99.90;;;;;;6186380;23;20025;-84
2023/07/21 00:25:17;;;;;;;11.98;7.78;;;20.60;99.90;;;;;;6154767;23;20045;-84
2023/07/21 00:27:45;;;;;;;13.52;8.95;;;20.60;99.90;;;;;;6207441;23;20081;-84
2023/07/21 00:30:14;;;;;;;12.80;8.60;;;20.60;99.90;;;;;;6180982;23;20025;-82
2023/07/21 00:32:43;;;;;;;10.98;8.10;;;20.50;99.90;;;;;;6173136;23;20025;-84
2023/07/21 00:35:12;;;;;;;13.77;8.23;;;20.50;99.90;;;;;;6170969;23;20021;-83
2023/07/21 00:37:41;;;;;;;10.15;7.13;;;20.50;99.90;;;;;;6157720;23;20021;-83
2023/07/21 00:40:19;;;;;;;12.40;7.55;;;20.60;99.90;;;;;;6160336;23;20029;-83
2023/07/21 00:42:47;;;;;;;8.93;6.75;;;20.50;99.90;;;;;;6154734;23;20076;-85
2023/07/21 00:45:15;;;;;;;11.85;7.45;;;20.50;99.90;;;;;;6153842;23;20081;-84
2023/07/21 00:47:43;;;;;;;8.95;7.00;;;20.30;99.90;;;;;;6151161;23;20026;-83
2023/07/21 00:50:14;;;;;;;11.07;7.97;;;20.40;99.90;;;;;;6156260;23;20022;-82
2023/07/21 00:52:43;;;;;;;13.18;7.25;;;20.40;99.90;;;;;;6151389;23;20063;-83
2023/07/21 00:55:12;;;;;;;9.57;7.47;;;20.40;99.90;;;;;;6159589;23;20025;-83
2023/07/21 00:57:40;;;;;;;12.25;7.20;;;20.30;99.90;;;;;;6151143;23;20014;-83
2023/07/21 01:00:12;;;;;;;11.95;7.68;;;20.20;99.90;;;;;;6162389;23;20024;-84
2023/07/21 01:02:40;;;;;;;14.18;7.85;;;20.00;99.90;;;;;;6151302;23;20025;-84
2023/07/21 01:05:09;;;;;;;12.05;7.55;;;19.90;99.90;;;;;;6150774;23;20509;-84
2023/07/21 01:07:40;;;;;;;10.07;7.43;;;19.90;99.90;;;;;;6150529;23;20029;-84
2023/07/21 01:10:09;;;;;;;13.80;7.88;;;19.80;99.90;;;;;;6150091;23;20510;-83
2023/07/21 01:12:37;;;;;;;10.20;7.57;;;19.80;99.90;;;;;;6153006;23;20021;-83
2023/07/21 01:15:05;;;;;;;12.27;7.53;;;19.80;99.90;;;;;;6177463;23;20017;-84
2023/07/21 01:17:34;;;;;;;10.73;7.15;;;19.90;99.90;;;;;;6181578;23;20010;-83
2023/07/21 01:20:05;;;;;;;10.88;8.68;;;19.90;99.90;;;;;;6159478;23;20021;-84
2023/07/21 01:22:43;;;;;;;13.20;8.25;;;20.10;99.90;;;;;;6161099;23;20100;-85
2023/07/21 01:25:14;;;;;;;9.90;7.30;;;20.10;99.90;;;;;;6153331;23;20029;-83
2023/07/21 01:27:43;;;;;;;10.90;7.72;;;20.10;99.90;;;;;;6164194;23;20021;-84
2023/07/21 01:30:13;;;;;;;11.13;7.45;;;20.10;99.90;;;;;;6164005;23;20084;-84
2023/07/21 01:32:42;;;;;;;9.73;7.38;;;20.00;99.90;;;;;;6151402;23;20026;-84
2023/07/21 01:35:12;;;;;;;10.18;7.07;;;20.00;99.90;;;;;;6151164;23;20028;-84
2023/07/21 01:37:42;;;;;;;12.35;7.05;;;20.00;99.90;;;;;;6157900;23;20033;-86
2023/07/21 01:40:12;;;;;;;12.98;7.88;;;19.90;99.90;;;;;;6160934;23;20009;-84
2023/07/21 01:42:40;;;;;;;10.52;7.22;;;19.80;99.90;;;;;;6177929;23;20029;-84
2023/07/21 01:45:08;;;;;;;8.57;6.85;;;19.60;99.90;;;;;;6178581;23;20016;-84
2023/07/21 01:47:36;;;;;;;9.20;6.50;;;19.50;99.90;;;;;;6158359;23;20194;-84
2023/07/21 01:50:06;;;;;;;11.48;7.22;;;19.50;99.90;;;;;;6153777;23;20521;-85
2023/07/21 01:52:35;;;;;;;10.15;7.13;;;19.50;99.90;;;;;;6155059;23;20017;-84
2023/07/21 01:55:09;;;;;;;9.63;6.50;;;19.40;99.90;;;;;;6163281;23;20101;-84
2023/07/21 01:57:59;;;;;;;10.63;6.60;;;19.40;99.90;;;;;;6155035;23;20451;-84
2023/07/21 02:00:32;;;;;;;11.70;7.07;;;19.40;99.90;;;;;;6121381;23;20105;-85
2023/07/21 02:03:00;;;;;;;11.48;7.10;;;19.30;99.90;;;;;;6122054;23;20029;-85
2023/07/21 02:05:28;;;;;;;12.95;6.78;;;19.30;99.90;;;;;;6096658;23;20018;-85
2023/07/21 02:07:56;;;;;;;11.40;6.70;;;19.40;99.90;;;;;;6119664;23;20025;-84
2023/07/21 02:10:23;;;;;;;12.48;7.30;;;19.60;99.90;;;;;;6082886;23;20058;-84
2023/07/21 02:13:15;;;;;;;14.00;5.85;;;19.60;99.90;;;;;;6109220;23;20018;-85
2023/07/21 02:15:44;;;;;;;8.63;6.10;;;19.60;99.90;;;;;;6094377;23;20013;-85
2023/07/21 02:18:12;;;;;;;8.93;6.50;;;19.50;99.90;;;;;;6095372;23;20372;-84
2023/07/21 02:20:39;;;;;;;9.30;6.43;;;19.50;99.90;;;;;;6094462;23;20026;-85
2023/07/21 02:23:06;;;;;;;10.35;6.55;;;19.50;99.90;;;;;;6094377;23;20022;-85
2023/07/21 02:25:34;;;;;;;7.90;6.13;;;19.40;99.90;;;;;;6148126;23;20028;-84
2023/07/21 02:28:02;;;;;;;8.32;6.28;;;19.50;99.90;;;;;;6159772;23;20021;-82
2023/07/21 02:30:31;;;;;;;8.80;6.20;;;19.40;99.90;;;;;;6151127;23;20048;-84
2023/07/21 02:32:59;;;;;;;11.07;6.00;;;19.40;99.90;;;;;;6150477;23;20045;-84
2023/07/21 02:35:27;;;;;;;9.38;5.85;;;19.40;99.90;;;;;;6154863;23;20350;-82
2023/07/21 02:37:56;;;;;;;9.25;6.00;;;19.40;99.90;;;;;;6156708;23;20049;-85
2023/07/21 02:40:23;;;;;;;7.97;5.65;;;19.20;99.90;;;;;;6150515;23;20021;-83
2023/07/21 02:42:52;;;;;;;9.70;6.13;;;19.10;99.90;;;;;;6163869;23;20401;-75
2023/07/21 02:45:19;;;;;;;8.95;6.30;;;19.00;99.90;;;;;;6105739;23;20033;-77
2023/07/21 02:47:48;;;;;;;10.18;6.28;;;19.00;99.90;;;;;;6106377;23;20312;-77
2023/07/21 02:50:17;;;;;;;8.25;5.93;;;18.90;99.90;;;;;;6102693;23;20359;-77
2023/07/21 02:52:44;;;;;;;9.20;6.50;;;18.90;99.90;;;;;;6101361;23;20022;-75
2023/07/21 02:55:12;;;;;;;10.55;6.22;;;18.90;99.90;;;;;;6110119;23;20030;-78
2023/07/21 02:57:40;;;;;;;10.48;5.63;;;18.80;99.90;;;;;;6117320;23;20010;-78
2023/07/21 03:00:13;;;;;;;7.32;5.55;;;18.90;99.90;;;;;;6135730;23;20037;-74
2023/07/21 03:02:52;;;;;;;9.70;5.75;;;18.90;99.90;;;;;;6113196;23;20049;-75
2023/07/21 03:05:20;;;;;;;6.75;5.20;;;19.00;99.90;;;;;;6116364;23;20026;-78
2023/07/21 03:07:47;;;;;;;7.93;5.38;;;19.00;99.90;;;;;;6114764;23;20033;-76
2023/07/21 03:10:16;;;;;;;10.05;5.95;;;18.90;99.90;;;;;;6123378;23;20045;-75
2023/07/21 03:12:44;;;;;;;11.95;6.07;;;18.90;99.90;;;;;;6141823;23;20010;-76
2023/07/21 03:15:15;;;;;;;7.68;5.40;;;18.70;99.90;;;;;;6103654;23;20025;-76
2023/07/21 03:17:54;;;;;;;7.70;5.72;;;18.70;99.90;;;;;;6111086;23;20056;-76
2023/07/21 03:20:23;;;;;;;11.68;6.32;;;18.60;99.90;;;;;;6099231;23;20030;-74
2023/07/21 03:22:51;;;;;;;9.48;6.55;;;18.60;99.90;;;;;;6098127;23;20455;-74
2023/07/21 03:25:18;;;;;;;13.60;6.22;;;18.70;99.90;;;;;;6098271;23;20092;-75
2023/07/21 03:27:54;;;;;;;12.18;6.55;;;18.80;99.90;;;;;;6098150;23;20108;-75
2023/07/21 03:30:23;;;;;;;9.68;5.88;;;18.80;99.90;;;;;;6100043;23;20021;-74
2023/07/21 03:33:07;;;;;;;9.90;5.55;;;18.80;99.90;;;;;;6099960;23;20049;-76
2023/07/21 03:35:35;;;;;;;12.23;6.30;;;18.90;99.90;;;;;;6100016;23;20030;-74
2023/07/21 03:38:03;;;;;;;10.00;5.82;;;18.80;99.90;;;;;;6100196;23;20032;-75
2023/07/21 03:40:31;;;;;;;6.82;5.18;;;18.80;99.90;;;;;;6098735;23;20028;-74
2023/07/21 03:42:59;;;;;;;8.02;5.70;;;18.90;99.90;;;;;;6134301;23;20017;-75
2023/07/21 03:45:27;;;;;;;10.68;5.78;;;18.90;99.90;;;;;;6101114;23;20041;-78
2023/07/21 03:47:54;;;;;;;9.68;5.55;;;18.90;99.90;;;;;;6101322;23;20108;-77
2023/07/21 03:50:24;;;;;;;9.55;5.63;;;19.00;99.90;;;;;;6128245;23;20123;-76
2023/07/21 03:52:51;;;;;;;9.07;6.05;;;19.10;99.90;;;;;;6105525;23;20052;-74
2023/07/21 03:55:23;;;;;;;8.40;5.40;;;19.20;99.90;;;;;;6103727;23;20034;-76
2023/07/21 03:57:51;;;;;;;7.90;5.13;;;19.30;99.90;;;;;;6125493;23;20013;-76
2023/07/21 04:00:19;;;;;;;7.80;4.78;;;19.50;99.90;;;;;;6139442;23;20022;-75
2023/07/21 04:02:47;;;;;;;9.13;4.43;;;19.80;99.90;;;;;;6098917;23;20018;-76
2023/07/21 04:05:15;;;;;;;8.73;4.53;;;20.30;99.90;;;;;;6097556;23;20050;-75
2023/07/21 04:07:44;;;;;;;8.23;4.57;;;20.80;99.90;;;;;;6121904;23;20100;-75
2023/07/21 04:10:12;;;;;;;10.52;4.97;;;21.30;99.90;;;;;;6096473;23;20534;-75
2023/07/21 04:12:39;;;;;;;10.30;4.15;;;21.80;99.90;;;;;;6096587;23;20110;-75
2023/07/21 04:15:08;;;;;;;13.13;5.20;;;22.30;99.90;;;;;;6122514;23;20018;-77
2023/07/21 04:17:36;;;;;;;11.05;4.93;;;22.60;99.90;;;;;;6101386;23;20045;-78
2023/07/21 04:20:06;;;;;;;10.68;5.75;;;23.10;99.90;;;;;;6116382;23;20026;-76
2023/07/21 04:22:34;;;;;;;8.20;5.35;;;23.50;99.90;;;;;;6134116;23;20028;-79
2023/07/21 04:25:04;;;;;;;11.20;5.57;;;23.90;99.90;;;;;;6138105;23;20026;-78
2023/07/21 04:27:32;;;;;;;10.60;5.10;;;24.60;99.90;;;;;;6114957;23;20025;-77
2023/07/21 04:29:59;;;;;;;8.85;5.10;;;25.10;99.90;;;;;;6120639;23;20316;-77
2023/07/21 04:32:27;;;;;;;7.45;5.60;;;25.60;99.90;;;;;;6100395;23;20034;-78
2023/07/21 04:34:58;;;;;;;11.40;5.10;;;26.00;99.90;;;;;;6135573;23;20029;-79
2023/07/21 04:37:27;;;;;;;11.00;6.00;;;26.50;99.90;;;;;;6135045;23;20018;-77
2023/07/21 04:39:56;;;;;;;9.85;5.22;;;26.80;99.90;;;;;;6103802;23;20038;-77
2023/07/21 04:42:26;;;;;;;10.80;6.10;;;27.10;99.90;;;;;;6097663;23;20020;-78
2023/07/21 04:44:53;;;;;;;11.85;6.78;;;27.50;99.90;;;;;;6097342;23;20328;-77
2023/07/21 04:47:22;;;;;;;8.27;6.00;;;27.80;99.90;;;;;;6097157;23;20018;-76
2023/07/21 04:50:12;;;;;;;10.07;4.50;;;28.10;99.90;;;;;;6121859;23;20018;-76
2023/07/21 04:52:39;;;;;;;9.38;4.90;;;28.60;99.90;;;;;;6096373;23;20028;-77
2023/07/21 04:55:08;;;;;;;9.07;4.50;;;28.40;99.90;;;;;;6130093;23;20048;-76
2023/07/21 04:57:37;;;;;;;9.55;4.65;;;28.30;99.90;;;;;;6133003;23;20014;-78
2023/07/21 05:00:11;;;;;;;9.02;4.72;;;28.60;99.90;;;;;;6068327;23;20034;-77
2023/07/21 05:02:39;;;;;;;8.73;4.00;;;29.40;99.90;;;;;;6092671;23;20451;-77
2023/07/21 05:05:09;;;;;;;10.18;5.00;;;29.60;99.90;;;;;;6090816;23;20026;-77
2023/07/21 05:07:44;;;;;;;6.72;4.07;;;28.90;99.90;;;;;;6092223;23;20360;-79
2023/07/21 05:10:12;;;;;;;7.55;4.68;;;27.70;99.90;;;;;;6100402;23;20027;-79
2023/07/21 05:12:43;;;;;;;16.23;8.88;;;26.80;99.90;;;;;;6104656;23;20042;-81
2023/07/21 05:15:29;;;;;;;6.50;4.35;;;27.00;99.90;;;;;;6093925;23;20705;-76
2023/07/21 05:18:11;;;;;;;7.22;4.50;;;27.80;99.90;;;;;;6095877;23;20194;-76
2023/07/21 05:20:58;;;;;;;9.57;4.82;;;28.70;99.90;;;;;;6078358;23;20026;-77
2023/07/21 05:23:42;;;;;;;8.40;5.05;;;29.40;99.90;;;;;;6092573;23;20027;-78
2023/07/21 05:26:15;;;;;;;8.82;4.65;;;29.90;99.90;;;;;;6093367;23;20045;-76
2023/07/21 05:28:46;;;;;;;8.90;4.97;;;30.10;99.90;;;;;;6092962;23;20171;-77
2023/07/21 05:31:15;;;;;;;7.30;5.05;;;30.70;99.90;;;;;;6093772;23;20105;-77
2023/07/21 05:34:07;;;;;;;8.70;5.10;;;30.50;99.90;;;;;;6094291;23;20114;-77
2023/07/21 05:36:36;;;;;;;10.63;5.40;;;30.90;99.90;;;;;;6094628;23;20527;-76
2023/07/21 05:39:04;;;;;;;9.55;5.43;;;31.00;99.90;;;;;;6099463;23;20070;-79
2023/07/21 05:41:32;;;;;;;10.98;5.55;;;30.80;99.90;;;;;;6113080;23;20026;-78
2023/07/21 05:44:02;;;;;;;8.73;5.93;;;30.60;99.90;;;;;;6112030;23;20026;-79
2023/07/21 05:46:38;;;;;;;13.18;6.25;;;30.90;99.90;;;;;;6110155;23;20022;-79
2023/07/21 05:49:09;;;;;;;11.77;6.10;;;31.10;99.90;;;;;;6093449;23;20048;-79
2023/07/21 05:51:38;;;;;;;10.35;5.90;;;31.00;99.90;;;;;;6093360;23;20329;-77
2023/07/21 05:54:22;;;;;;;13.38;10.50;;;30.90;99.90;;;;;;6094952;23;20022;-79
2023/07/21 05:56:49;;;;;;;14.40;7.68;;;31.40;99.90;;;;;;6094817;23;20075;-82
2023/07/21 05:59:27;;;;;;;11.10;5.85;;;31.80;99.90;;;;;;6092786;23;20026;-81
2023/07/21 06:01:59;;;;;;;14.15;7.80;;;31.90;99.90;;;;;;6091806;23;20019;-79
2023/07/21 06:04:30;;;;;;;11.10;7.27;;;32.10;99.90;;;;;;6093713;23;20022;-81
2023/07/21 06:07:16;;;;;;;12.40;6.13;;;32.10;99.90;;;;;;6093362;23;20393;-78
2023/07/21 06:10:02;;;;;;;;;;;32.20;99.90;;;;;;6094908;23;20032;-76
2023/07/21 06:12:50;;;;;;;10.68;5.68;;;31.80;99.90;;;;;;6094258;23;19940;-76
2023/07/21 06:15:34;;;;;;;8.68;5.53;;;31.00;99.90;;;;;;6104462;23;20014;-76
2023/07/21 06:18:20;;;;;;;12.57;7.00;;;30.50;99.90;;;;;;6093722;23;20046;-75
2023/07/21 06:20:48;;;;;;;17.50;10.48;;;29.80;99.90;;;;;;6069413;23;20086;-79
2023/07/21 06:23:15;;;;;;;13.88;9.35;;;29.40;99.90;;;;;;6093408;23;20101;-78
2023/07/21 06:25:44;;;;;;;14.77;9.00;;;28.90;99.90;;;;;;6092238;23;20030;-77
2023/07/21 06:28:15;;;;;;;14.20;7.70;;;28.70;99.90;;;;;;6101404;23;20044;-78
2023/07/21 06:30:44;;;;;;;14.57;7.50;;;28.90;99.90;;;;;;6067302;23;20030;-80
2023/07/21 06:33:21;;;;;;;12.40;6.70;;;28.90;99.90;;;;;;6068878;23;20019;-75
2023/07/21 06:35:54;;;;;;;8.88;5.78;;;29.20;99.90;;;;;;6092451;23;20026;-77
2023/07/21 06:38:44;;;;;;;11.63;7.53;;;29.00;99.90;;;;;;6090547;23;20346;-77
2023/07/21 06:41:17;;;;;;;11.82;8.52;;;29.10;99.90;;;;;;6102337;23;20019;-78
2023/07/21 06:43:49;;;;;;;10.88;7.38;;;29.10;99.90;;;;;;6114390;23;20030;-78
2023/07/21 06:46:45;;;;;;;14.23;6.72;;;29.10;99.90;;;;;;6068245;23;20030;-76
2023/07/21 06:49:31;;;;;;;7.00;4.97;;;29.30;99.90;;;;;;6095575;23;20030;-77
2023/07/21 06:52:08;;;;;;;;;;;29.40;99.90;;;;;;6095549;23;20022;-78
2023/07/21 06:54:36;;;;;;;11.43;8.18;;;29.40;99.90;;;;;;6107315;23;19917;-76
2023/07/21 06:57:05;;;;;;;10.02;5.88;;;29.10;99.90;;;;;;6095929;23;20018;-79
2023/07/21 06:59:34;;;;;;;10.00;6.03;;;28.90;99.90;;;;;;6101062;23;20027;-80
2023/07/21 07:02:03;;;;;;;10.77;5.65;;;28.70;99.90;;;;;;6089586;23;20058;-77
2023/07/21 07:04:31;;;;;;;11.88;5.43;;;28.60;99.90;;;;;;6106334;23;20018;-77
2023/07/21 07:06:59;;;;;;;7.18;5.25;;;28.40;99.90;;;;;;6104251;23;20026;-76
2023/07/21 07:09:27;;;;;;;14.68;7.28;;;28.30;99.90;;;;;;6069620;23;20026;-76
2023/07/21 07:11:56;;;;;;;6.65;5.35;;;28.20;99.90;;;;;;6094565;23;20026;-75
2023/07/21 07:14:23;;;;;;;9.32;5.40;;;28.10;99.90;;;;;;6091453;23;20053;-77
2023/07/21 07:16:52;;;;;;;8.60;5.38;;;28.20;99.90;;;;;;6098357;23;20110;-76
2023/07/21 07:19:20;;;;;;;7.80;5.30;;;28.30;99.90;;;;;;6104758;23;20086;-78
2023/07/21 07:21:50;;;;;;;8.88;5.22;;;28.40;99.90;;;;;;6106756;23;20085;-76
2023/07/21 07:24:21;;;;;;;7.00;4.82;;;28.60;99.90;;;;;;6068560;23;20014;-75
2023/07/21 07:26:49;;;;;;;7.97;4.72;;;28.70;99.90;;;;;;6067995;23;20404;-78
2023/07/21 07:29:17;;;;;;;10.48;5.57;;;28.70;99.90;;;;;;6096029;23;20056;-77
2023/07/21 07:31:44;;;;;;;7.28;5.63;;;28.70;99.90;;;;;;6094826;23;20027;-77
2023/07/21 07:34:12;;;;;;;9.43;6.22;;;28.70;99.90;;;;;;6100980;23;20022;-77
2023/07/21 07:36:42;;;;;;;8.02;5.95;;;28.90;99.90;;;;;;6103337;23;20098;-78
2023/07/21 07:39:11;;;;;;;10.07;5.40;;;29.20;99.90;;;;;;6104243;23;20033;-78
2023/07/21 07:41:39;;;;;;;8.48;5.30;;;29.30;99.90;;;;;;6096476;23;20042;-77
2023/07/21 07:44:08;;;;;;;12.13;6.53;;;29.50;99.90;;;;;;6097679;23;20026;-75
2023/07/21 07:46:36;;;;;;;7.60;5.30;;;29.60;99.90;;;;;;6099232;23;20022;-77
2023/07/21 07:49:04;;;;;;;8.82;5.00;;;29.60;99.90;;;;;;6101378;23;20638;-77
2023/07/21 07:51:31;;;;;;;6.95;5.03;;;29.60;99.90;;;;;;6092140;23;20362;-78
2023/07/21 07:54:01;;;;;;;7.35;5.03;;;29.40;99.90;;;;;;6093986;23;20026;-76
2023/07/21 07:56:28;;;;;;;7.95;5.28;;;29.40;99.90;;;;;;6096913;23;20027;-76
2023/07/21 07:58:57;;;;;;;11.23;6.10;;;29.30;99.90;;;;;;6100056;23;20077;-78
2023/07/21 08:01:24;;;;;;;11.00;5.05;;;29.40;99.90;;;;;;6103529;23;20022;-79
2023/07/21 08:03:53;;;;;;;7.20;5.15;;;29.50;99.90;;;;;;6110797;23;20038;-76
2023/07/21 08:06:22;;;;;;;10.05;5.32;;;29.60;99.90;;;;;;6109617;23;20015;-78
2023/07/21 08:08:49;;;;;;;10.57;6.05;;;29.70;99.90;;;;;;6096337;23;20458;-77
2023/07/21 08:11:18;;;;;;;7.45;5.60;;;29.70;99.90;;;;;;6099687;23;20022;-77
2023/07/21 08:13:46;;;;;;;9.95;5.50;;;29.60;99.90;;;;;;6099657;23;20026;-79
2023/07/21 08:16:15;;;;;;;10.45;5.57;;;29.40;99.90;;;;;;6101052;23;20065;-77
2023/07/21 08:18:42;;;;;;;8.18;6.40;;;29.60;99.90;;;;;;6101620;23;20387;-79
2023/07/21 08:21:20;;;;;;;10.52;6.18;;;29.80;99.90;;;;;;6104607;23;20089;-79
2023/07/21 08:23:49;;;;;;;9.95;6.80;;;30.00;99.90;;;;;;6099188;23;20030;-77
2023/07/21 08:26:18;;;;;;;11.57;6.22;;;30.10;99.90;;;;;;6097901;23;20101;-78
2023/07/21 08:28:45;;;;;;;9.93;6.05;;;30.00;99.90;;;;;;6116199;23;20030;-77
2023/07/21 08:31:15;;;;;;;19.35;7.07;;;29.80;99.90;;;;;;6067813;23;20467;-77
2023/07/21 08:33:43;;;;;;;10.10;6.35;;;29.80;99.90;;;;;;6103990;23;20021;-76
2023/07/21 08:36:10;;;;;;;10.07;5.57;;;30.00;99.90;;;;;;6104159;23;20045;-77
2023/07/21 08:38:37;;;;;;;8.50;6.03;;;30.20;99.90;;;;;;6094354;23;20062;-77
2023/07/21 08:41:07;;;;;;;13.10;6.00;;;30.40;99.90;;;;;;6097329;23;20025;-76
2023/07/21 08:43:36;;;;;;;8.40;5.28;;;30.40;99.90;;;;;;6101586;23;20011;-79
2023/07/21 08:46:08;;;;;;;9.50;5.43;;;30.50;99.90;;;;;;6118822;23;20036;-80
2023/07/21 08:48:35;;;;;;;9.40;6.65;;;30.50;99.90;;;;;;6131136;23;20037;-78
2023/07/21 08:51:04;;;;;;;8.60;5.38;;;30.60;99.90;;;;;;6124759;23;20030;-79
2023/07/21 08:53:32;;;;;;;9.82;6.40;;;30.70;99.90;;;;;;6153424;23;20049;-79
2023/07/21 08:56:01;;;;;;;9.13;6.97;;;30.80;99.90;;;;;;6154255;23;20037;-79
2023/07/21 08:58:29;;;;;;;7.90;5.82;;;30.90;99.90;;;;;;6156897;23;20145;-79
2023/07/21 09:00:58;;;;;;;7.40;5.57;;;31.10;99.90;;;;;;6160088;23;20017;-78
2023/07/21 09:03:27;;;;;;;10.45;6.38;;;31.00;99.90;;;;;;6162316;23;20478;-80
2023/07/21 09:05:57;;;;;;;9.75;5.70;;;30.90;99.90;;;;;;6152823;23;20072;-80
2023/07/21 09:08:28;;;;;;;10.73;5.80;;;30.80;99.90;;;;;;6154526;23;20017;-80
2023/07/21 09:10:59;;;;;;;9.10;5.85;;;30.90;99.90;;;;;;6155524;23;20029;-79
2023/07/21 09:13:27;;;;;;;7.95;5.70;;;30.90;99.90;;;;;;6157373;23;20021;-78
2023/07/21 09:15:56;;;;;;;9.15;5.90;;;30.90;99.90;;;;;;6160646;23;20078;-78
2023/07/21 09:18:29;;;;;;;9.98;5.97;;;30.70;99.90;;;;;;6161794;23;20025;-79
2023/07/21 09:20:57;;;;;;;14.40;6.10;;;31.00;99.90;;;;;;6152191;23;20041;-79
2023/07/21 09:23:26;;;;;;;12.65;5.80;;;31.00;99.90;;;;;;6154241;23;20037;-79
2023/07/21 09:25:55;;;;;;;8.07;6.07;;;31.10;99.90;;;;;;6156308;23;20093;-80
2023/07/21 09:28:37;;;;;;;10.38;6.45;;;31.10;99.90;;;;;;6125389;23;20084;-79
2023/07/21 09:31:05;;;;;;;8.40;5.90;;;31.20;99.90;;;;;;6159772;23;20105;-80
2023/07/21 09:33:38;;;;;;;11.48;6.80;;;31.20;99.90;;;;;;6125440;23;20021;-79
2023/07/21 09:36:06;;;;;;;10.85;5.80;;;31.40;99.90;;;;;;6153144;23;20520;-79
2023/07/21 09:38:35;;;;;;;10.90;6.53;;;31.50;99.90;;;;;;6153449;23;20028;-80
2023/07/21 09:41:04;;;;;;;11.15;6.30;;;31.70;99.90;;;;;;6155013;23;20154;-78
2023/07/21 09:43:32;;;;;;;9.98;7.18;;;31.70;99.90;;;;;;6157333;23;20090;-78
2023/07/21 09:46:04;;;;;;;11.38;6.68;;;31.70;99.90;;;;;;6159790;23;20059;-78
2023/07/21 09:48:33;;;;;;;8.98;5.88;;;31.70;99.90;;;;;;6161838;23;20666;-78
2023/07/21 09:51:03;;;;;;;10.77;6.50;;;31.80;99.90;;;;;;6151552;23;20331;-79
2023/07/21 09:53:33;;;;;;;11.57;6.40;;;31.80;99.90;;;;;;6155232;23;20017;-79
2023/07/21 09:56:02;;;;;;;10.25;6.25;;;31.90;99.90;;;;;;6157117;23;20038;-80
2023/07/21 09:58:30;;;;;;;13.02;8.20;;;31.90;99.90;;;;;;6157335;23;20021;-80
2023/07/21 10:01:03;;;;;;;9.18;6.53;;;31.90;99.90;;;;;;6159064;23;20029;-78
2023/07/21 10:03:31;;;;;;;9.98;8.40;;;32.00;99.90;;;;;;6127041;23;20018;-78
2023/07/21 10:06:02;;;;;;;9.32;6.43;;;31.80;99.90;;;;;;6151387;23;20458;-80
2023/07/21 10:08:33;;;;;;;12.65;7.28;;;31.90;99.90;;;;;;6153252;23;20061;-80
2023/07/21 10:11:01;;;;;;;13.32;7.32;;;32.00;99.90;;;;;;6125368;23;20528;-81
2023/07/21 10:13:31;;;;;;;13.43;8.25;;;32.10;99.90;;;;;;6125289;23;20134;-81
2023/07/21 10:16:01;;;;;;;18.38;9.30;;;32.30;99.90;;;;;;6159644;23;20508;-81
2023/07/21 10:18:28;;;;;;;14.05;8.13;;;32.40;99.90;;;;;;6160698;23;20608;-79
2023/07/21 10:20:57;;;;;;;19.15;9.38;;;32.50;99.90;;;;;;6151520;23;20025;-81
2023/07/21 10:23:27;;;;;;;15.23;9.00;;;32.60;99.90;;;;;;6154354;23;20489;-81
2023/07/21 10:25:57;;;;;;;13.43;8.90;;;32.70;99.90;;;;;;6155650;23;20617;-80
2023/07/21 10:28:31;;;;;;;9.80;7.32;;;32.70;99.90;;;;;;6157420;23;20087;-79
2023/07/21 10:31:35;;;;;;;18.13;8.40;;;32.70;99.90;;;;;;6158853;23;20014;-81
2023/07/21 10:34:04;;;;;;;13.93;8.98;;;32.60;99.90;;;;;;6124746;23;20045;-80
2023/07/21 10:36:49;;;;;;;15.05;8.13;;;32.60;99.90;;;;;;6161672;23;20026;-81
2023/07/21 10:39:21;;;;;;;33.25;10.40;;;32.60;99.90;;;;;;6123860;23;20463;-79
2023/07/21 10:41:50;;;;;;;12.77;8.43;;;32.60;99.90;;;;;;6151778;23;20529;-79
2023/07/21 10:44:18;;;;;;;11.73;8.52;;;32.70;99.90;;;;;;6153766;23;20052;-79
2023/07/21 10:46:49;;;;;;;17.65;11.07;;;32.80;99.90;;;;;;6156587;23;20118;-81
2023/07/21 10:49:19;;;;;;;19.05;11.02;;;33.00;99.90;;;;;;6124001;23;20041;-81
2023/07/21 10:51:48;;;;;;;15.23;9.88;;;33.00;99.90;;;;;;6160115;23;20101;-80
2023/07/21 10:54:17;;;;;;;14.27;8.73;;;32.80;99.90;;;;;;6161099;23;20021;-80
2023/07/21 10:56:46;;;;;;;11.35;7.70;;;32.90;99.90;;;;;;6151985;23;20040;-79
2023/07/21 10:59:15;;;;;;;13.73;8.07;;;32.80;99.90;;;;;;6151979;23;20088;-78
2023/07/21 11:01:44;;;;;;;13.93;7.05;;;32.70;99.90;;;;;;6153243;23;20489;-79
2023/07/21 11:04:13;;;;;;;13.23;7.70;;;32.60;99.90;;;;;;6157097;23;20045;-79
2023/07/21 11:06:42;;;;;;;12.73;8.45;;;32.60;99.90;;;;;;6123607;23;20079;-77
2023/07/21 11:09:11;;;;;;;16.88;9.32;;;32.80;99.90;;;;;;6160940;23;20017;-78
2023/07/21 11:11:41;;;;;;;18.00;9.63;;;32.70;99.90;;;;;;6152101;23;20025;-79
2023/07/21 11:14:12;;;;;;;19.23;8.75;;;32.70;99.90;;;;;;6155255;23;20022;-78
2023/07/21 11:16:44;;;;;;;23.70;18.88;;;32.90;99.90;;;;;;6156566;23;20022;-79
2023/07/21 11:19:12;;;;;;;15.70;9.57;;;33.00;99.90;;;;;;6157702;23;20324;-80
2023/07/21 11:21:40;;;;;;;16.52;9.05;;;33.10;99.90;;;;;;6160279;23;20021;-80
2023/07/21 11:24:08;;;;;;;12.63;9.57;;;33.20;99.90;;;;;;6160953;23;20474;-78
2023/07/21 11:26:37;;;;;;;15.15;7.95;;;33.30;99.90;;;;;;6154040;23;20370;-82
2023/07/21 11:29:11;;;;;;;12.38;7.75;;;33.30;99.90;;;;;;6154226;23;20088;-85
2023/07/21 11:31:39;;;;;;;29.92;22.33;;;33.30;99.90;;;;;;6127697;23;20394;-83
2023/07/21 11:34:19;;;;;;;133.20;111.72;;;33.30;99.90;;;;;;6162182;23;20021;-86
2023/07/21 11:36:48;;;;;;;117.40;99.65;;;33.30;99.90;;;;;;6130406;23;20117;-83
2023/07/21 11:39:21;;;;;;;392.30;350.60;;;33.40;99.90;;;;;;6164396;23;20442;-86
2023/07/21 11:41:51;;;;;;;88.97;79.53;;;33.40;99.90;;;;;;6152034;23;20149;-83
2023/07/21 11:44:22;;;;;;;24.55;16.30;;;33.40;99.90;;;;;;6155791;23;20418;-82
2023/07/21 11:46:59;;;;;;;14.98;11.23;;;33.50;99.90;;;;;;6159172;23;20030;-83
2023/07/21 11:49:28;;;;;;;17.75;12.00;;;33.70;99.90;;;;;;6127039;23;20024;-84
2023/07/21 11:52:00;;;;;;;14.18;10.15;;;33.60;99.90;;;;;;6160233;23;20023;-82
2023/07/21 11:54:29;;;;;;;13.15;8.98;;;33.60;99.90;;;;;;6162841;23;20032;-83
2023/07/21 11:56:58;;;;;;;14.77;11.13;;;33.80;99.90;;;;;;6151738;23;20048;-83
2023/07/21 11:59:28;;;;;;;14.80;11.00;;;33.80;99.90;;;;;;6154114;23;20152;-82
2023/07/21 12:01:56;;;;;;;16.63;9.15;;;33.90;99.90;;;;;;6154864;23;20037;-82
2023/07/21 12:04:25;;;;;;;12.80;8.55;;;33.90;99.90;;;;;;6157764;23;20029;-84
2023/07/21 12:06:53;;;;;;;10.88;8.15;;;33.80;99.90;;;;;;6161295;23;20212;-83
2023/07/21 12:09:20;;;;;;;15.85;8.93;;;33.30;99.90;;;;;;6170570;23;20037;-84
2023/07/21 12:11:48;;;;;;;11.73;7.38;;;33.20;99.90;;;;;;6153557;23;20033;-82
2023/07/21 12:14:16;;;;;;;9.73;7.78;;;33.00;99.90;;;;;;6155250;23;20026;-84
2023/07/21 12:16:45;;;;;;;13.48;8.38;;;32.80;99.90;;;;;;6157895;23;20032;-81
2023/07/21 12:19:13;;;;;;;12.27;8.30;;;32.60;99.90;;;;;;6158475;23;20085;-83
2023/07/21 12:21:42;;;;;;;12.20;7.72;;;32.30;99.90;;;;;;6160382;23;20338;-83
2023/07/21 12:24:09;;;;;;;13.32;7.97;;;32.10;99.90;;;;;;6160642;23;20010;-82
2023/07/21 12:26:36;;;;;;;13.43;8.38;;;32.00;99.90;;;;;;6152738;23;20035;-83
2023/07/21 12:29:04;;;;;;;15.30;8.02;;;31.90;99.90;;;;;;6153776;23;20362;-83
2023/07/21 12:31:32;;;;;;;12.23;7.78;;;31.80;99.90;;;;;;6156207;23;20039;-82
2023/07/21 12:34:01;;;;;;;16.33;11.20;;;31.70;99.90;;;;;;6158340;23;20080;-82
2023/07/21 12:36:29;;;;;;;11.02;8.15;;;31.50;99.90;;;;;;6161322;23;20010;-81
2023/07/21 12:38:56;;;;;;;14.85;8.32;;;31.50;99.90;;;;;;6149772;23;20108;-82
2023/07/21 12:41:23;;;;;;;13.40;7.78;;;31.40;99.90;;;;;;6124204;23;20029;-82
2023/07/21 12:43:51;;;;;;;13.20;8.40;;;31.40;99.90;;;;;;6155568;23;20025;-84
2023/07/21 12:46:18;;;;;;;13.55;8.70;;;31.30;99.90;;;;;;6157478;23;20021;-82
2023/07/21 12:48:46;;;;;;;10.85;7.63;;;31.30;99.90;;;;;;6160421;23;20414;-82
2023/07/21 12:51:15;;;;;;;14.10;7.55;;;31.10;99.90;;;;;;6160780;23;20474;-83
2023/07/21 12:53:42;;;;;;;14.25;8.40;;;31.10;99.90;;;;;;6152538;23;20395;-82
2023/07/21 12:56:10;;;;;;;15.75;9.48;;;31.20;99.90;;;;;;6154147;23;20409;-83